sensor_id;sensor_type;location;lat;lon;timestamp;temperature;humidity
23869;DHT22;12115;47.128;15.422;2022-07-23T00:01:41;22.60;99.90
23869;DHT22;12115;47.128;15.422;2022-07-23T00:04:08;22.60;99.90
23869;DHT22;12115;47.128;15.422;2022-07-23T00:06:35;22.50;99.90
23869;DHT22;12115;47.128;15.422;2022-07-23T00:09:02;22.50;99.90
23869;DHT22;12115;47.128;15.422;2022-07-23T00:11:30;22.50;99.90
23869;DHT22;12115;47.128;15.422;2022-07-23T00:13:57;22.50;99.90
23869;DHT22;12115;47.128;15.422;2022-07-23T00:16:25;22.50;99.90
23869;DHT22;12115;47.128;15.422;2022-07-23T00:18:52;22.50;99.90
23869;DHT22;12115;47.128;15.422;2022-07-23T00:21:19;22.50;99.90
23869;DHT22;12115;47.128;15.422;2022-07-23T00:23:46;22.50;99.90
23869;DHT22;12115;47.128;15.422;2022-07-23T00:26:13;22.50;99.90
23869;DHT22;12115;47.128;15.422;2022-07-23T00:28:40;22.50;99.90
23869;DHT22;12115;47.128;15.422;2022-07-23T00:31:07;22.40;99.90
23869;DHT22;12115;47.128;15.422;2022-07-23T00:33:34;22.40;99.90
23869;DHT22;12115;47.128;15.422;2022-07-23T00:36:02;22.40;99.90
23869;DHT22;12115;47.128;15.422;2022-07-23T00:38:29;22.40;99.90
23869;DHT22;12115;47.128;15.422;2022-07-23T00:40:56;22.30;99.90
23869;DHT22;12115;47.128;15.422;2022-07-23T00:43:23;22.20;99.90
23869;DHT22;12115;47.128;15.422;2022-07-23T00:45:50;22.20;99.90
23869;DHT22;12115;47.128;15.422;2022-07-23T00:48:17;22.20;99.90
23869;DHT22;12115;47.128;15.422;2022-07-23T00:50:45;22.10;99.90
23869;DHT22;12115;47.128;15.422;2022-07-23T00:53:12;22.10;99.90
23869;DHT22;12115;47.128;15.422;2022-07-23T00:55:39;22.10;99.90
23869;DHT22;12115;47.128;15.422;2022-07-23T00:58:06;22.00;99.90
23869;DHT22;12115;47.128;15.422;2022-07-23T01:00:34;22.00;99.90
23869;DHT22;12115;47.128;15.422;2022-07-23T01:03:01;22.10;99.90
23869;DHT22;12115;47.128;15.422;2022-07-23T01:05:29;22.00;99.90
23869;DHT22;12115;47.128;15.422;2022-07-23T01:07:56;22.00;99.90
23869;DHT22;12115;47.128;15.422;2022-07-23T01:10:24;22.00;99.90
23869;DHT22;12115;47.128;15.422;2022-07-23T01:13:03;22.00;99.90
23869;DHT22;12115;47.128;15.422;2022-07-23T01:15:31;22.10;99.90
23869;DHT22;12115;47.128;15.422;2022-07-23T01:17:59;22.00;99.90
23869;DHT22;12115;47.128;15.422;2022-07-23T01:20:27;22.00;99.90
23869;DHT22;12115;47.128;15.422;2022-07-23T01:22:55;22.00;99.90
23869;DHT22;12115;47.128;15.422;2022-07-23T01:25:22;22.00;99.90
23869;DHT22;12115;47.128;15.422;2022-07-23T01:27:55;22.00;99.90
23869;DHT22;12115;47.128;15.422;2022-07-23T01:30:23;22.00;99.90
23869;DHT22;12115;47.128;15.422;2022-07-23T01:32:50;21.90;99.90
23869;DHT22;12115;47.128;15.422;2022-07-23T01:35:18;21.90;99.90
23869;DHT22;12115;47.128;15.422;2022-07-23T01:37:46;21.90;99.90
23869;DHT22;12115;47.128;15.422;2022-07-23T01:40:14;21.80;99.90
23869;DHT22;12115;47.128;15.422;2022-07-23T01:42:41;21.70;99.90
23869;DHT22;12115;47.128;15.422;2022-07-23T01:45:10;21.70;99.90
23869;DHT22;12115;47.128;15.422;2022-07-23T01:47:42;21.70;99.90
23869;DHT22;12115;47.128;15.422;2022-07-23T01:50:09;21.70;99.90
23869;DHT22;12115;47.128;15.422;2022-07-23T01:52:39;21.70;99.90
23869;DHT22;12115;47.128;15.422;2022-07-23T01:55:06;21.70;99.90
23869;DHT22;12115;47.128;15.422;2022-07-23T01:57:34;21.70;99.90
23869;DHT22;12115;47.128;15.422;2022-07-23T02:00:02;21.50;99.90
23869;DHT22;12115;47.128;15.422;2022-07-23T02:02:38;21.50;99.90
23869;DHT22;12115;47.128;15.422;2022-07-23T02:05:06;21.50;99.90
23869;DHT22;12115;47.128;15.422;2022-07-23T02:07:34;21.40;99.90
23869;DHT22;12115;47.128;15.422;2022-07-23T02:10:01;21.50;99.90
23869;DHT22;12115;47.128;15.422;2022-07-23T02:12:28;21.50;99.90
23869;DHT22;12115;47.128;15.422;2022-07-23T02:14:55;21.50;99.90
23869;DHT22;12115;47.128;15.422;2022-07-23T02:17:24;21.50;99.90
23869;DHT22;12115;47.128;15.422;2022-07-23T02:19:51;21.40;99.90
23869;DHT22;12115;47.128;15.422;2022-07-23T02:22:18;21.40;99.90
23869;DHT22;12115;47.128;15.422;2022-07-23T02:24:48;21.40;99.90
23869;DHT22;12115;47.128;15.422;2022-07-23T02:27:15;21.40;99.90
23869;DHT22;12115;47.128;15.422;2022-07-23T02:29:43;21.40;99.90
23869;DHT22;12115;47.128;15.422;2022-07-23T02:32:10;21.40;99.90
23869;DHT22;12115;47.128;15.422;2022-07-23T02:34:37;21.30;99.90
23869;DHT22;12115;47.128;15.422;2022-07-23T02:37:04;21.20;99.90
23869;DHT22;12115;47.128;15.422;2022-07-23T02:39:31;21.10;99.90
23869;DHT22;12115;47.128;15.422;2022-07-23T02:41:58;21.20;99.90
23869;DHT22;12115;47.128;15.422;2022-07-23T02:44:25;21.10;99.90
23869;DHT22;12115;47.128;15.422;2022-07-23T02:46:53;21.00;99.90
23869;DHT22;12115;47.128;15.422;2022-07-23T02:49:20;21.10;99.90
23869;DHT22;12115;47.128;15.422;2022-07-23T02:51:50;21.10;99.90
23869;DHT22;12115;47.128;15.422;2022-07-23T02:54:17;21.10;99.90
23869;DHT22;12115;47.128;15.422;2022-07-23T02:56:44;21.00;99.90
23869;DHT22;12115;47.128;15.422;2022-07-23T02:59:11;20.90;99.90
23869;DHT22;12115;47.128;15.422;2022-07-23T03:01:38;21.00;99.90
23869;DHT22;12115;47.128;15.422;2022-07-23T03:04:06;20.90;99.90
23869;DHT22;12115;47.128;15.422;2022-07-23T03:06:34;20.90;99.90
23869;DHT22;12115;47.128;15.422;2022-07-23T03:09:01;20.90;99.90
23869;DHT22;12115;47.128;15.422;2022-07-23T03:11:29;20.90;99.90
23869;DHT22;12115;47.128;15.422;2022-07-23T03:13:56;20.90;99.90
23869;DHT22;12115;47.128;15.422;2022-07-23T03:16:23;20.90;99.90
23869;DHT22;12115;47.128;15.422;2022-07-23T03:18:50;20.90;99.90
23869;DHT22;12115;47.128;15.422;2022-07-23T03:21:17;20.90;99.90
23869;DHT22;12115;47.128;15.422;2022-07-23T03:23:44;20.70;99.90
23869;DHT22;12115;47.128;15.422;2022-07-23T03:26:12;20.70;99.90
23869;DHT22;12115;47.128;15.422;2022-07-23T03:28:39;20.80;99.90
23869;DHT22;12115;47.128;15.422;2022-07-23T03:31:06;20.80;99.90
23869;DHT22;12115;47.128;15.422;2022-07-23T03:33:33;20.70;99.90
23869;DHT22;12115;47.128;15.422;2022-07-23T03:36:00;20.70;99.90
23869;DHT22;12115;47.128;15.422;2022-07-23T03:38:33;20.60;99.90
23869;DHT22;12115;47.128;15.422;2022-07-23T03:41:00;20.50;99.90
23869;DHT22;12115;47.128;15.422;2022-07-23T03:43:28;20.60;99.90
23869;DHT22;12115;47.128;15.422;2022-07-23T03:45:55;20.50;99.90
23869;DHT22;12115;47.128;15.422;2022-07-23T03:48:22;20.50;99.90
23869;DHT22;12115;47.128;15.422;2022-07-23T03:50:50;20.40;99.90
23869;DHT22;12115;47.128;15.422;2022-07-23T03:53:17;20.50;99.90
23869;DHT22;12115;47.128;15.422;2022-07-23T03:55:45;20.50;99.90
23869;DHT22;12115;47.128;15.422;2022-07-23T03:58:13;20.30;99.90
23869;DHT22;12115;47.128;15.422;2022-07-23T04:00:43;20.40;99.90
23869;DHT22;12115;47.128;15.422;2022-07-23T04:03:10;20.40;99.90
23869;DHT22;12115;47.128;15.422;2022-07-23T04:05:37;20.40;99.90
23869;DHT22;12115;47.128;15.422;2022-07-23T04:08:06;20.30;99.90
23869;DHT22;12115;47.128;15.422;2022-07-23T04:10:37;20.30;99.90
23869;DHT22;12115;47.128;15.422;2022-07-23T04:13:06;20.30;99.90
23869;DHT22;12115;47.128;15.422;2022-07-23T04:15:33;20.40;99.90
23869;DHT22;12115;47.128;15.422;2022-07-23T04:18:00;20.30;99.90
23869;DHT22;12115;47.128;15.422;2022-07-23T04:20:37;20.20;99.90
23869;DHT22;12115;47.128;15.422;2022-07-23T04:23:07;20.30;99.90
23869;DHT22;12115;47.128;15.422;2022-07-23T04:25:34;20.20;99.90
23869;DHT22;12115;47.128;15.422;2022-07-23T04:28:01;20.30;99.90
23869;DHT22;12115;47.128;15.422;2022-07-23T04:30:28;20.40;99.90
23869;DHT22;12115;47.128;15.422;2022-07-23T04:32:56;20.40;99.90
23869;DHT22;12115;47.128;15.422;2022-07-23T04:35:27;20.50;99.90
23869;DHT22;12115;47.128;15.422;2022-07-23T04:38:01;20.50;99.90
23869;DHT22;12115;47.128;15.422;2022-07-23T04:40:29;20.50;99.90
23869;DHT22;12115;47.128;15.422;2022-07-23T04:42:56;20.50;99.90
23869;DHT22;12115;47.128;15.422;2022-07-23T04:45:24;20.60;99.90
23869;DHT22;12115;47.128;15.422;2022-07-23T04:47:52;20.60;99.90
23869;DHT22;12115;47.128;15.422;2022-07-23T04:50:19;20.60;99.90
23869;DHT22;12115;47.128;15.422;2022-07-23T04:52:51;20.70;99.90
23869;DHT22;12115;47.128;15.422;2022-07-23T04:55:18;20.70;99.90
23869;DHT22;12115;47.128;15.422;2022-07-23T04:57:45;20.80;99.90
23869;DHT22;12115;47.128;15.422;2022-07-23T05:00:12;20.80;99.90
23869;DHT22;12115;47.128;15.422;2022-07-23T05:02:40;20.90;99.90
23869;DHT22;12115;47.128;15.422;2022-07-23T05:05:07;21.00;99.90
23869;DHT22;12115;47.128;15.422;2022-07-23T05:07:34;21.00;99.90
23869;DHT22;12115;47.128;15.422;2022-07-23T05:10:01;21.10;99.90
23869;DHT22;12115;47.128;15.422;2022-07-23T05:12:29;21.10;99.90
23869;DHT22;12115;47.128;15.422;2022-07-23T05:14:56;21.20;99.90
23869;DHT22;12115;47.128;15.422;2022-07-23T05:17:24;21.30;99.90
23869;DHT22;12115;47.128;15.422;2022-07-23T05:19:52;21.30;99.90
23869;DHT22;12115;47.128;15.422;2022-07-23T05:22:26;21.30;99.90
23869;DHT22;12115;47.128;15.422;2022-07-23T05:24:53;21.40;99.90
23869;DHT22;12115;47.128;15.422;2022-07-23T05:27:21;21.40;99.90
23869;DHT22;12115;47.128;15.422;2022-07-23T05:29:48;21.50;99.90
23869;DHT22;12115;47.128;15.422;2022-07-23T05:32:15;21.60;99.90
23869;DHT22;12115;47.128;15.422;2022-07-23T05:34:49;21.70;99.90
23869;DHT22;12115;47.128;15.422;2022-07-23T05:37:16;21.80;99.90
23869;DHT22;12115;47.128;15.422;2022-07-23T05:39:43;21.90;99.90
23869;DHT22;12115;47.128;15.422;2022-07-23T05:42:10;22.00;99.90
23869;DHT22;12115;47.128;15.422;2022-07-23T05:44:38;22.10;99.90
23869;DHT22;12115;47.128;15.422;2022-07-23T05:47:05;22.10;99.90
23869;DHT22;12115;47.128;15.422;2022-07-23T05:49:32;22.20;99.90
23869;DHT22;12115;47.128;15.422;2022-07-23T05:52:16;22.30;99.90
23869;DHT22;12115;47.128;15.422;2022-07-23T05:55:07;22.40;99.90
23869;DHT22;12115;47.128;15.422;2022-07-23T05:57:35;22.40;99.90
23869;DHT22;12115;47.128;15.422;2022-07-23T06:00:06;22.50;99.90
23869;DHT22;12115;47.128;15.422;2022-07-23T06:02:39;22.50;99.90
23869;DHT22;12115;47.128;15.422;2022-07-23T06:05:08;22.60;99.90
23869;DHT22;12115;47.128;15.422;2022-07-23T06:07:37;22.70;99.90
23869;DHT22;12115;47.128;15.422;2022-07-23T06:10:05;22.80;99.90
23869;DHT22;12115;47.128;15.422;2022-07-23T06:12:32;22.90;99.90
23869;DHT22;12115;47.128;15.422;2022-07-23T06:14:59;23.00;99.90
23869;DHT22;12115;47.128;15.422;2022-07-23T06:17:27;23.10;99.90
23869;DHT22;12115;47.128;15.422;2022-07-23T06:19:54;23.20;99.90
23869;DHT22;12115;47.128;15.422;2022-07-23T06:22:22;23.20;99.90
23869;DHT22;12115;47.128;15.422;2022-07-23T06:24:50;23.20;99.90
23869;DHT22;12115;47.128;15.422;2022-07-23T06:27:20;23.40;99.90
23869;DHT22;12115;47.128;15.422;2022-07-23T06:29:52;23.40;99.90
23869;DHT22;12115;47.128;15.422;2022-07-23T06:32:20;23.60;99.90
23869;DHT22;12115;47.128;15.422;2022-07-23T06:34:47;23.70;99.90
23869;DHT22;12115;47.128;15.422;2022-07-23T06:37:15;23.90;99.90
23869;DHT22;12115;47.128;15.422;2022-07-23T06:39:45;23.90;99.90
23869;DHT22;12115;47.128;15.422;2022-07-23T06:42:12;24.00;99.90
23869;DHT22;12115;47.128;15.422;2022-07-23T06:44:44;24.10;99.90
23869;DHT22;12115;47.128;15.422;2022-07-23T06:47:15;24.20;99.90
23869;DHT22;12115;47.128;15.422;2022-07-23T06:49:42;24.30;99.90
23869;DHT22;12115;47.128;15.422;2022-07-23T06:52:09;24.40;99.90
23869;DHT22;12115;47.128;15.422;2022-07-23T06:54:36;24.60;99.90
23869;DHT22;12115;47.128;15.422;2022-07-23T06:57:03;24.80;99.90
23869;DHT22;12115;47.128;15.422;2022-07-23T06:59:30;24.90;99.90
23869;DHT22;12115;47.128;15.422;2022-07-23T07:01:58;25.10;99.90
23869;DHT22;12115;47.128;15.422;2022-07-23T07:04:25;25.30;99.90
23869;DHT22;12115;47.128;15.422;2022-07-23T07:06:52;25.50;99.90
23869;DHT22;12115;47.128;15.422;2022-07-23T07:09:19;25.60;99.90
23869;DHT22;12115;47.128;15.422;2022-07-23T07:11:46;25.70;99.90
23869;DHT22;12115;47.128;15.422;2022-07-23T07:14:13;25.70;99.90
23869;DHT22;12115;47.128;15.422;2022-07-23T07:16:40;25.80;99.90
23869;DHT22;12115;47.128;15.422;2022-07-23T07:19:07;25.90;99.90
23869;DHT22;12115;47.128;15.422;2022-07-23T07:21:34;26.00;99.90
23869;DHT22;12115;47.128;15.422;2022-07-23T07:24:02;26.10;99.90
23869;DHT22;12115;47.128;15.422;2022-07-23T07:26:30;26.20;99.90
23869;DHT22;12115;47.128;15.422;2022-07-23T07:28:57;26.20;99.90
23869;DHT22;12115;47.128;15.422;2022-07-23T07:31:25;26.20;99.90
23869;DHT22;12115;47.128;15.422;2022-07-23T07:33:52;26.20;99.90
23869;DHT22;12115;47.128;15.422;2022-07-23T07:36:19;26.30;99.90
23869;DHT22;12115;47.128;15.422;2022-07-23T07:38:46;26.40;99.90
23869;DHT22;12115;47.128;15.422;2022-07-23T07:41:15;26.50;99.90
23869;DHT22;12115;47.128;15.422;2022-07-23T07:43:42;26.60;99.90
23869;DHT22;12115;47.128;15.422;2022-07-23T07:46:09;26.70;99.90
23869;DHT22;12115;47.128;15.422;2022-07-23T07:48:37;26.80;99.60
23869;DHT22;12115;47.128;15.422;2022-07-23T07:51:05;26.90;97.90
23869;DHT22;12115;47.128;15.422;2022-07-23T07:53:32;27.10;96.90
23869;DHT22;12115;47.128;15.422;2022-07-23T07:55:59;27.30;97.10
23869;DHT22;12115;47.128;15.422;2022-07-23T07:58:26;27.20;97.40
23869;DHT22;12115;47.128;15.422;2022-07-23T08:00:54;27.40;97.90
23869;DHT22;12115;47.128;15.422;2022-07-23T08:03:21;27.50;97.70
23869;DHT22;12115;47.128;15.422;2022-07-23T08:05:48;27.50;97.00
23869;DHT22;12115;47.128;15.422;2022-07-23T08:08:15;27.60;95.40
23869;DHT22;12115;47.128;15.422;2022-07-23T08:10:43;27.70;96.30
23869;DHT22;12115;47.128;15.422;2022-07-23T08:13:13;27.70;95.80
23869;DHT22;12115;47.128;15.422;2022-07-23T08:15:42;27.70;95.80
23869;DHT22;12115;47.128;15.422;2022-07-23T08:18:10;27.80;96.50
23869;DHT22;12115;47.128;15.422;2022-07-23T08:20:37;27.80;96.10
23869;DHT22;12115;47.128;15.422;2022-07-23T08:23:06;27.90;96.00
23869;DHT22;12115;47.128;15.422;2022-07-23T08:25:38;28.00;95.50
23869;DHT22;12115;47.128;15.422;2022-07-23T08:28:08;28.10;95.00
23869;DHT22;12115;47.128;15.422;2022-07-23T08:30:36;28.10;94.40
23869;DHT22;12115;47.128;15.422;2022-07-23T08:33:09;28.20;94.60
23869;DHT22;12115;47.128;15.422;2022-07-23T08:36:02;28.20;95.30
23869;DHT22;12115;47.128;15.422;2022-07-23T08:38:31;28.30;95.70
23869;DHT22;12115;47.128;15.422;2022-07-23T08:40:59;28.40;95.80
23869;DHT22;12115;47.128;15.422;2022-07-23T08:43:28;28.60;95.60
23869;DHT22;12115;47.128;15.422;2022-07-23T08:45:57;28.70;95.40
23869;DHT22;12115;47.128;15.422;2022-07-23T08:48:29;28.80;95.10
23869;DHT22;12115;47.128;15.422;2022-07-23T08:50:59;28.90;94.70
23869;DHT22;12115;47.128;15.422;2022-07-23T08:53:28;29.10;95.00
23869;DHT22;12115;47.128;15.422;2022-07-23T08:55:58;29.20;95.00
23869;DHT22;12115;47.128;15.422;2022-07-23T08:58:26;29.30;94.40
23869;DHT22;12115;47.128;15.422;2022-07-23T09:00:55;29.50;95.70
23869;DHT22;12115;47.128;15.422;2022-07-23T09:03:33;29.60;93.90
23869;DHT22;12115;47.128;15.422;2022-07-23T09:06:01;29.50;92.80
23869;DHT22;12115;47.128;15.422;2022-07-23T09:08:39;29.50;93.40
23869;DHT22;12115;47.128;15.422;2022-07-23T09:11:11;29.50;94.70
23869;DHT22;12115;47.128;15.422;2022-07-23T09:13:40;29.50;93.50
23869;DHT22;12115;47.128;15.422;2022-07-23T09:16:23;29.40;92.20
23869;DHT22;12115;47.128;15.422;2022-07-23T09:18:59;29.40;91.60
23869;DHT22;12115;47.128;15.422;2022-07-23T09:21:28;29.40;91.40
23869;DHT22;12115;47.128;15.422;2022-07-23T09:24:04;29.40;91.60
23869;DHT22;12115;47.128;15.422;2022-07-23T09:26:40;29.40;91.40
23869;DHT22;12115;47.128;15.422;2022-07-23T09:29:18;29.30;91.60
23869;DHT22;12115;47.128;15.422;2022-07-23T09:36:51;29.30;90.80
23869;DHT22;12115;47.128;15.422;2022-07-23T09:39:46;29.30;90.60
23869;DHT22;12115;47.128;15.422;2022-07-23T09:42:21;29.30;90.40
23869;DHT22;12115;47.128;15.422;2022-07-23T09:44:50;29.20;90.40
23869;DHT22;12115;47.128;15.422;2022-07-23T09:47:18;29.20;90.90
23869;DHT22;12115;47.128;15.422;2022-07-23T09:50:08;29.20;90.30
23869;DHT22;12115;47.128;15.422;2022-07-23T09:52:43;29.20;90.40
23869;DHT22;12115;47.128;15.422;2022-07-23T09:55:11;29.20;88.90
23869;DHT22;12115;47.128;15.422;2022-07-23T09:57:40;29.30;89.50
23869;DHT22;12115;47.128;15.422;2022-07-23T10:00:09;29.40;90.20
23869;DHT22;12115;47.128;15.422;2022-07-23T10:02:38;29.50;90.30
23869;DHT22;12115;47.128;15.422;2022-07-23T10:05:45;29.60;88.90
23869;DHT22;12115;47.128;15.422;2022-07-23T10:08:35;29.70;88.20
23869;DHT22;12115;47.128;15.422;2022-07-23T10:11:32;29.70;87.90
23869;DHT22;12115;47.128;15.422;2022-07-23T10:14:25;29.70;88.00
23869;DHT22;12115;47.128;15.422;2022-07-23T10:16:58;29.80;88.80
23869;DHT22;12115;47.128;15.422;2022-07-23T10:19:27;30.00;87.70
23869;DHT22;12115;47.128;15.422;2022-07-23T10:22:03;30.10;88.20
23869;DHT22;12115;47.128;15.422;2022-07-23T10:30:45;30.60;85.70
23869;DHT22;12115;47.128;15.422;2022-07-23T10:41:36;30.60;86.90
23869;DHT22;12115;47.128;15.422;2022-07-23T10:44:14;30.80;87.70
23869;DHT22;12115;47.128;15.422;2022-07-23T10:47:03;31.00;87.40
23869;DHT22;12115;47.128;15.422;2022-07-23T10:49:39;31.20;85.30
23869;DHT22;12115;47.128;15.422;2022-07-23T10:52:28;31.20;85.40
23869;DHT22;12115;47.128;15.422;2022-07-23T10:54:56;31.20;86.50
23869;DHT22;12115;47.128;15.422;2022-07-23T10:57:28;31.20;85.50
23869;DHT22;12115;47.128;15.422;2022-07-23T11:02:36;31.30;84.80
23869;DHT22;12115;47.128;15.422;2022-07-23T11:05:08;31.40;84.70
23869;DHT22;12115;47.128;15.422;2022-07-23T11:08:09;31.40;86.30
23869;DHT22;12115;47.128;15.422;2022-07-23T11:18:55;31.70;84.50
23869;DHT22;12115;47.128;15.422;2022-07-23T11:24:13;31.70;84.80
23869;DHT22;12115;47.128;15.422;2022-07-23T11:26:43;31.60;81.10
23869;DHT22;12115;47.128;15.422;2022-07-23T11:32:05;31.50;85.10
23869;DHT22;12115;47.128;15.422;2022-07-23T11:37:08;31.80;85.10
23869;DHT22;12115;47.128;15.422;2022-07-23T11:39:36;32.00;86.00
23869;DHT22;12115;47.128;15.422;2022-07-23T11:42:05;32.10;82.40
23869;DHT22;12115;47.128;15.422;2022-07-23T11:44:34;32.10;83.90
23869;DHT22;12115;47.128;15.422;2022-07-23T11:47:04;31.90;81.00
23869;DHT22;12115;47.128;15.422;2022-07-23T11:49:32;31.80;79.80
23869;DHT22;12115;47.128;15.422;2022-07-23T11:52:13;31.80;79.00
23869;DHT22;12115;47.128;15.422;2022-07-23T11:57:17;32.00;80.20
23869;DHT22;12115;47.128;15.422;2022-07-23T11:59:47;32.10;78.80
23869;DHT22;12115;47.128;15.422;2022-07-23T12:02:16;32.30;79.80
23869;DHT22;12115;47.128;15.422;2022-07-23T12:04:48;32.40;80.50
23869;DHT22;12115;47.128;15.422;2022-07-23T12:07:41;32.60;78.90
23869;DHT22;12115;47.128;15.422;2022-07-23T12:10:22;32.50;73.90
23869;DHT22;12115;47.128;15.422;2022-07-23T12:12:58;32.40;76.20
23869;DHT22;12115;47.128;15.422;2022-07-23T12:15:32;32.40;77.40
23869;DHT22;12115;47.128;15.422;2022-07-23T12:18:02;32.50;77.20
23869;DHT22;12115;47.128;15.422;2022-07-23T12:20:40;32.60;76.10
23869;DHT22;12115;47.128;15.422;2022-07-23T12:23:10;32.80;77.40
23869;DHT22;12115;47.128;15.422;2022-07-23T12:25:42;32.90;75.50
23869;DHT22;12115;47.128;15.422;2022-07-23T12:28:11;33.00;73.90
23869;DHT22;12115;47.128;15.422;2022-07-23T12:30:45;33.10;75.50
23869;DHT22;12115;47.128;15.422;2022-07-23T12:35:49;33.30;75.50
23869;DHT22;12115;47.128;15.422;2022-07-23T12:38:19;33.40;74.20
23869;DHT22;12115;47.128;15.422;2022-07-23T12:40:59;33.40;75.50
23869;DHT22;12115;47.128;15.422;2022-07-23T12:46:06;33.30;73.20
23869;DHT22;12115;47.128;15.422;2022-07-23T12:48:35;33.30;75.00
23869;DHT22;12115;47.128;15.422;2022-07-23T12:51:30;33.40;70.70
23869;DHT22;12115;47.128;15.422;2022-07-23T12:54:05;33.50;74.50
23869;DHT22;12115;47.128;15.422;2022-07-23T12:56:35;33.60;71.20
23869;DHT22;12115;47.128;15.422;2022-07-23T13:01:36;33.50;68.80
23869;DHT22;12115;47.128;15.422;2022-07-23T13:04:14;33.50;68.50
23869;DHT22;12115;47.128;15.422;2022-07-23T13:06:46;33.50;72.40
23869;DHT22;12115;47.128;15.422;2022-07-23T13:09:17;33.60;68.50
23869;DHT22;12115;47.128;15.422;2022-07-23T13:11:46;33.70;68.10
23869;DHT22;12115;47.128;15.422;2022-07-23T13:14:14;33.70;72.20
23869;DHT22;12115;47.128;15.422;2022-07-23T13:16:42;33.80;69.70
23869;DHT22;12115;47.128;15.422;2022-07-23T13:19:10;33.90;67.80
23869;DHT22;12115;47.128;15.422;2022-07-23T13:21:39;33.90;65.80
23869;DHT22;12115;47.128;15.422;2022-07-23T13:24:07;33.90;68.20
23869;DHT22;12115;47.128;15.422;2022-07-23T13:26:35;33.80;69.20
23869;DHT22;12115;47.128;15.422;2022-07-23T13:29:04;34.10;68.60
23869;DHT22;12115;47.128;15.422;2022-07-23T13:31:37;34.10;68.20
23869;DHT22;12115;47.128;15.422;2022-07-23T13:34:06;33.90;67.80
23869;DHT22;12115;47.128;15.422;2022-07-23T13:36:37;33.90;69.40
23869;DHT22;12115;47.128;15.422;2022-07-23T13:39:04;33.90;68.20
23869;DHT22;12115;47.128;15.422;2022-07-23T13:41:32;34.00;67.30
23869;DHT22;12115;47.128;15.422;2022-07-23T13:43:59;33.80;64.70
23869;DHT22;12115;47.128;15.422;2022-07-23T13:46:26;33.60;65.00
23869;DHT22;12115;47.128;15.422;2022-07-23T13:48:53;33.80;66.50
23869;DHT22;12115;47.128;15.422;2022-07-23T13:51:20;33.90;69.50
23869;DHT22;12115;47.128;15.422;2022-07-23T13:53:51;33.90;68.60
23869;DHT22;12115;47.128;15.422;2022-07-23T13:56:19;34.00;67.00
23869;DHT22;12115;47.128;15.422;2022-07-23T13:58:47;34.10;71.00
23869;DHT22;12115;47.128;15.422;2022-07-23T14:01:14;34.10;70.20
23869;DHT22;12115;47.128;15.422;2022-07-23T14:03:44;33.90;71.40
23869;DHT22;12115;47.128;15.422;2022-07-23T14:06:11;34.10;70.00
23869;DHT22;12115;47.128;15.422;2022-07-23T14:08:45;34.10;64.40
23869;DHT22;12115;47.128;15.422;2022-07-23T14:11:13;33.80;63.60
23869;DHT22;12115;47.128;15.422;2022-07-23T14:13:40;33.50;64.40
23869;DHT22;12115;47.128;15.422;2022-07-23T14:16:07;33.30;63.80
23869;DHT22;12115;47.128;15.422;2022-07-23T14:18:35;33.30;64.20
23869;DHT22;12115;47.128;15.422;2022-07-23T14:21:03;33.20;65.40
23869;DHT22;12115;47.128;15.422;2022-07-23T14:23:32;33.50;67.80
23869;DHT22;12115;47.128;15.422;2022-07-23T14:26:00;33.60;66.50
23869;DHT22;12115;47.128;15.422;2022-07-23T14:28:32;33.70;66.60
23869;DHT22;12115;47.128;15.422;2022-07-23T14:31:01;33.80;67.00
23869;DHT22;12115;47.128;15.422;2022-07-23T14:33:29;33.80;65.40
23869;DHT22;12115;47.128;15.422;2022-07-23T14:35:57;33.80;65.20
23869;DHT22;12115;47.128;15.422;2022-07-23T14:38:27;33.90;67.30
23869;DHT22;12115;47.128;15.422;2022-07-23T14:40:54;34.00;69.10
23869;DHT22;12115;47.128;15.422;2022-07-23T14:43:22;33.80;72.00
23869;DHT22;12115;47.128;15.422;2022-07-23T14:45:49;33.80;68.10
23869;DHT22;12115;47.128;15.422;2022-07-23T14:48:16;33.90;68.60
23869;DHT22;12115;47.128;15.422;2022-07-23T14:50:43;33.90;69.20
23869;DHT22;12115;47.128;15.422;2022-07-23T14:53:11;34.10;65.70
23869;DHT22;12115;47.128;15.422;2022-07-23T14:55:38;33.90;61.00
23869;DHT22;12115;47.128;15.422;2022-07-23T14:58:05;33.70;61.90
23869;DHT22;12115;47.128;15.422;2022-07-23T15:00:33;33.50;63.90
23869;DHT22;12115;47.128;15.422;2022-07-23T15:03:00;33.50;65.60
23869;DHT22;12115;47.128;15.422;2022-07-23T15:05:28;33.70;68.00
23869;DHT22;12115;47.128;15.422;2022-07-23T15:07:56;33.70;66.50
23869;DHT22;12115;47.128;15.422;2022-07-23T15:10:23;33.50;61.90
23869;DHT22;12115;47.128;15.422;2022-07-23T15:12:50;33.50;63.00
23869;DHT22;12115;47.128;15.422;2022-07-23T15:15:17;33.50;62.80
23869;DHT22;12115;47.128;15.422;2022-07-23T15:17:44;33.50;62.80
23869;DHT22;12115;47.128;15.422;2022-07-23T15:20:12;33.60;63.40
23869;DHT22;12115;47.128;15.422;2022-07-23T15:22:59;33.60;67.50
23869;DHT22;12115;47.128;15.422;2022-07-23T15:25:26;33.80;64.00
23869;DHT22;12115;47.128;15.422;2022-07-23T15:27:53;33.80;65.40
23869;DHT22;12115;47.128;15.422;2022-07-23T15:30:20;33.60;63.90
23869;DHT22;12115;47.128;15.422;2022-07-23T15:32:48;33.70;61.70
23869;DHT22;12115;47.128;15.422;2022-07-23T15:35:15;33.70;62.80
23869;DHT22;12115;47.128;15.422;2022-07-23T15:37:42;33.60;66.40
23869;DHT22;12115;47.128;15.422;2022-07-23T15:40:12;33.60;66.20
23869;DHT22;12115;47.128;15.422;2022-07-23T15:42:39;33.50;69.00
23869;DHT22;12115;47.128;15.422;2022-07-23T15:45:07;33.40;68.40
23869;DHT22;12115;47.128;15.422;2022-07-23T15:47:36;33.30;67.50
23869;DHT22;12115;47.128;15.422;2022-07-23T15:50:04;33.20;69.10
23869;DHT22;12115;47.128;15.422;2022-07-23T15:52:31;33.30;65.40
23869;DHT22;12115;47.128;15.422;2022-07-23T15:54:59;33.30;64.00
23869;DHT22;12115;47.128;15.422;2022-07-23T15:57:26;33.30;66.20
23869;DHT22;12115;47.128;15.422;2022-07-23T15:59:54;33.30;65.50
23869;DHT22;12115;47.128;15.422;2022-07-23T16:02:23;33.20;70.40
23869;DHT22;12115;47.128;15.422;2022-07-23T16:04:53;33.10;66.00
23869;DHT22;12115;47.128;15.422;2022-07-23T16:07:20;32.80;69.90
23869;DHT22;12115;47.128;15.422;2022-07-23T16:09:47;32.60;71.70
23869;DHT22;12115;47.128;15.422;2022-07-23T16:12:14;32.50;71.70
23869;DHT22;12115;47.128;15.422;2022-07-23T16:14:41;32.30;72.80
23869;DHT22;12115;47.128;15.422;2022-07-23T16:17:09;32.00;72.90
23869;DHT22;12115;47.128;15.422;2022-07-23T16:19:36;31.90;74.70